sensor_id;sensor_type;location;lat;lon;timestamp;temperature;humidity
7325;DHT22;3703;48.016;7.802;2023-09-19T00:02:39;18.20;99.90
7325;DHT22;3703;48.016;7.802;2023-09-19T00:05:25;18.10;99.90
7325;DHT22;3703;48.016;7.802;2023-09-19T00:08:13;18.10;99.90
7325;DHT22;3703;48.016;7.802;2023-09-19T00:10:59;18.10;99.90
7325;DHT22;3703;48.016;7.802;2023-09-19T00:13:49;18.00;99.90
7325;DHT22;3703;48.016;7.802;2023-09-19T00:16:35;18.00;99.90
7325;DHT22;3703;48.016;7.802;2023-09-19T00:19:22;17.80;99.90
7325;DHT22;3703;48.016;7.802;2023-09-19T00:22:09;18.00;99.90
7325;DHT22;3703;48.016;7.802;2023-09-19T00:24:54;17.90;99.90
7325;DHT22;3703;48.016;7.802;2023-09-19T00:27:40;18.00;99.90
7325;DHT22;3703;48.016;7.802;2023-09-19T00:30:27;18.00;99.90
7325;DHT22;3703;48.016;7.802;2023-09-19T00:33:13;17.90;99.90
7325;DHT22;3703;48.016;7.802;2023-09-19T00:36:01;18.00;99.90
7325;DHT22;3703;48.016;7.802;2023-09-19T00:38:49;18.10;99.90
7325;DHT22;3703;48.016;7.802;2023-09-19T00:41:35;18.00;99.90
7325;DHT22;3703;48.016;7.802;2023-09-19T00:44:22;18.00;99.90
7325;DHT22;3703;48.016;7.802;2023-09-19T00:47:08;18.30;99.90
7325;DHT22;3703;48.016;7.802;2023-09-19T00:49:59;17.90;99.90
7325;DHT22;3703;48.016;7.802;2023-09-19T00:52:50;18.60;99.90
7325;DHT22;3703;48.016;7.802;2023-09-19T00:55:40;18.20;99.90
7325;DHT22;3703;48.016;7.802;2023-09-19T00:58:26;17.70;99.90
7325;DHT22;3703;48.016;7.802;2023-09-19T01:01:16;18.00;99.90
7325;DHT22;3703;48.016;7.802;2023-09-19T01:04:04;18.00;99.90
7325;DHT22;3703;48.016;7.802;2023-09-19T01:06:50;18.00;99.90
7325;DHT22;3703;48.016;7.802;2023-09-19T01:09:38;18.10;99.90
7325;DHT22;3703;48.016;7.802;2023-09-19T01:12:33;18.00;99.90
7325;DHT22;3703;48.016;7.802;2023-09-19T01:15:40;18.00;99.90
7325;DHT22;3703;48.016;7.802;2023-09-19T01:18:38;18.00;99.90
7325;DHT22;3703;48.016;7.802;2023-09-19T01:21:34;17.80;99.90
7325;DHT22;3703;48.016;7.802;2023-09-19T01:25:03;17.90;99.90
7325;DHT22;3703;48.016;7.802;2023-09-19T01:28:11;18.10;99.90
7325;DHT22;3703;48.016;7.802;2023-09-19T01:31:10;18.00;99.90
7325;DHT22;3703;48.016;7.802;2023-09-19T01:33:59;18.00;99.90
7325;DHT22;3703;48.016;7.802;2023-09-19T01:36:45;18.00;99.90
7325;DHT22;3703;48.016;7.802;2023-09-19T01:39:31;17.90;99.90
7325;DHT22;3703;48.016;7.802;2023-09-19T01:42:24;17.90;99.90
7325;DHT22;3703;48.016;7.802;2023-09-19T01:45:21;17.70;99.90
7325;DHT22;3703;48.016;7.802;2023-09-19T01:48:20;18.00;99.90
7325;DHT22;3703;48.016;7.802;2023-09-19T01:51:11;18.00;99.90
7325;DHT22;3703;48.016;7.802;2023-09-19T01:54:01;17.60;99.90
7325;DHT22;3703;48.016;7.802;2023-09-19T01:56:55;17.90;99.90
7325;DHT22;3703;48.016;7.802;2023-09-19T01:59:48;18.00;99.90
7325;DHT22;3703;48.016;7.802;2023-09-19T02:02:37;18.00;99.90
7325;DHT22;3703;48.016;7.802;2023-09-19T02:05:26;19.20;99.90
7325;DHT22;3703;48.016;7.802;2023-09-19T02:08:12;18.00;99.90
7325;DHT22;3703;48.016;7.802;2023-09-19T02:11:02;17.90;99.90
7325;DHT22;3703;48.016;7.802;2023-09-19T02:13:47;17.90;99.90
7325;DHT22;3703;48.016;7.802;2023-09-19T02:16:38;17.90;99.90
7325;DHT22;3703;48.016;7.802;2023-09-19T02:19:24;18.20;99.90
7325;DHT22;3703;48.016;7.802;2023-09-19T02:22:11;18.50;99.90
7325;DHT22;3703;48.016;7.802;2023-09-19T02:24:58;18.00;99.90
7325;DHT22;3703;48.016;7.802;2023-09-19T02:27:46;18.00;99.90
7325;DHT22;3703;48.016;7.802;2023-09-19T02:30:31;18.00;99.90
7325;DHT22;3703;48.016;7.802;2023-09-19T02:33:17;17.90;99.90
7325;DHT22;3703;48.016;7.802;2023-09-19T02:36:03;17.90;99.90
7325;DHT22;3703;48.016;7.802;2023-09-19T02:38:51;18.00;99.90
7325;DHT22;3703;48.016;7.802;2023-09-19T02:41:37;18.00;99.90
7325;DHT22;3703;48.016;7.802;2023-09-19T02:44:23;17.90;99.90
7325;DHT22;3703;48.016;7.802;2023-09-19T02:47:09;17.80;99.90
7325;DHT22;3703;48.016;7.802;2023-09-19T02:49:55;17.80;99.90
7325;DHT22;3703;48.016;7.802;2023-09-19T02:52:41;17.80;99.90
7325;DHT22;3703;48.016;7.802;2023-09-19T02:55:30;17.80;99.90
7325;DHT22;3703;48.016;7.802;2023-09-19T02:58:16;17.80;99.90
7325;DHT22;3703;48.016;7.802;2023-09-19T03:01:08;17.80;99.90
7325;DHT22;3703;48.016;7.802;2023-09-19T03:03:55;17.70;99.90
7325;DHT22;3703;48.016;7.802;2023-09-19T03:06:41;17.80;99.90
7325;DHT22;3703;48.016;7.802;2023-09-19T03:09:28;17.60;99.90
7325;DHT22;3703;48.016;7.802;2023-09-19T03:12:16;17.70;99.90
7325;DHT22;3703;48.016;7.802;2023-09-19T03:15:03;17.70;99.90
7325;DHT22;3703;48.016;7.802;2023-09-19T03:17:50;17.80;99.90
7325;DHT22;3703;48.016;7.802;2023-09-19T03:20:37;17.70;99.90
7325;DHT22;3703;48.016;7.802;2023-09-19T03:23:23;17.70;99.90
7325;DHT22;3703;48.016;7.802;2023-09-19T03:26:10;17.70;99.90
7325;DHT22;3703;48.016;7.802;2023-09-19T03:29:04;17.80;99.90
7325;DHT22;3703;48.016;7.802;2023-09-19T03:31:52;17.70;99.90
7325;DHT22;3703;48.016;7.802;2023-09-19T03:34:39;17.70;99.90
7325;DHT22;3703;48.016;7.802;2023-09-19T03:37:27;17.50;99.90
7325;DHT22;3703;48.016;7.802;2023-09-19T03:40:13;17.70;99.90
7325;DHT22;3703;48.016;7.802;2023-09-19T03:43:00;17.80;99.90
7325;DHT22;3703;48.016;7.802;2023-09-19T03:45:48;17.80;99.90
7325;DHT22;3703;48.016;7.802;2023-09-19T03:48:35;17.80;99.90
7325;DHT22;3703;48.016;7.802;2023-09-19T03:51:21;17.80;99.90
7325;DHT22;3703;48.016;7.802;2023-09-19T03:54:07;17.80;99.90
7325;DHT22;3703;48.016;7.802;2023-09-19T03:56:52;17.80;99.90
7325;DHT22;3703;48.016;7.802;2023-09-19T03:59:37;17.80;99.90
7325;DHT22;3703;48.016;7.802;2023-09-19T04:02:24;17.80;99.90
7325;DHT22;3703;48.016;7.802;2023-09-19T04:05:10;17.70;99.90
7325;DHT22;3703;48.016;7.802;2023-09-19T04:07:56;17.70;99.90
7325;DHT22;3703;48.016;7.802;2023-09-19T04:10:42;17.60;99.90
7325;DHT22;3703;48.016;7.802;2023-09-19T04:13:29;17.60;99.90
7325;DHT22;3703;48.016;7.802;2023-09-19T04:16:15;17.60;99.90
7325;DHT22;3703;48.016;7.802;2023-09-19T04:19:02;17.60;99.90
7325;DHT22;3703;48.016;7.802;2023-09-19T04:21:48;17.70;99.90
7325;DHT22;3703;48.016;7.802;2023-09-19T04:24:33;17.70;99.90
7325;DHT22;3703;48.016;7.802;2023-09-19T04:27:19;17.80;99.90
7325;DHT22;3703;48.016;7.802;2023-09-19T04:30:06;17.70;99.90
7325;DHT22;3703;48.016;7.802;2023-09-19T04:32:54;17.50;99.90
7325;DHT22;3703;48.016;7.802;2023-09-19T04:35:42;17.50;99.90
7325;DHT22;3703;48.016;7.802;2023-09-19T04:38:28;17.70;99.90
7325;DHT22;3703;48.016;7.802;2023-09-19T04:41:13;17.80;99.90
7325;DHT22;3703;48.016;7.802;2023-09-19T04:44:00;17.80;99.90
7325;DHT22;3703;48.016;7.802;2023-09-19T04:46:45;17.80;99.90
7325;DHT22;3703;48.016;7.802;2023-09-19T04:49:31;15.90;99.90
7325;DHT22;3703;48.016;7.802;2023-09-19T04:52:19;18.00;99.90
7325;DHT22;3703;48.016;7.802;2023-09-19T04:55:05;17.70;99.90
7325;DHT22;3703;48.016;7.802;2023-09-19T04:57:52;17.60;99.90
7325;DHT22;3703;48.016;7.802;2023-09-19T05:00:39;17.70;99.90
7325;DHT22;3703;48.016;7.802;2023-09-19T05:03:25;17.70;99.90
7325;DHT22;3703;48.016;7.802;2023-09-19T05:06:10;19.00;99.90
7325;DHT22;3703;48.016;7.802;2023-09-19T05:08:57;17.70;99.90
7325;DHT22;3703;48.016;7.802;2023-09-19T05:11:44;17.20;99.90
7325;DHT22;3703;48.016;7.802;2023-09-19T05:14:30;17.70;99.90
7325;DHT22;3703;48.016;7.802;2023-09-19T05:17:16;17.60;99.90
7325;DHT22;3703;48.016;7.802;2023-09-19T05:20:03;17.40;99.90
7325;DHT22;3703;48.016;7.802;2023-09-19T05:22:59;18.00;99.90
7325;DHT22;3703;48.016;7.802;2023-09-19T05:25:53;17.70;99.90
7325;DHT22;3703;48.016;7.802;2023-09-19T05:28:41;17.70;99.90
7325;DHT22;3703;48.016;7.802;2023-09-19T05:31:27;17.60;99.90
7325;DHT22;3703;48.016;7.802;2023-09-19T05:34:13;17.60;99.90
7325;DHT22;3703;48.016;7.802;2023-09-19T05:36:58;17.60;99.90
7325;DHT22;3703;48.016;7.802;2023-09-19T05:39:44;17.70;99.90
7325;DHT22;3703;48.016;7.802;2023-09-19T05:42:31;18.10;99.90
7325;DHT22;3703;48.016;7.802;2023-09-19T05:44:58;18.30;99.90
7325;DHT22;3703;48.016;7.802;2023-09-19T05:47:25;17.70;99.90
7325;DHT22;3703;48.016;7.802;2023-09-19T05:49:53;18.40;99.90
7325;DHT22;3703;48.016;7.802;2023-09-19T05:52:39;17.70;99.90
7325;DHT22;3703;48.016;7.802;2023-09-19T05:55:24;17.70;99.90
7325;DHT22;3703;48.016;7.802;2023-09-19T05:58:14;17.80;99.90
7325;DHT22;3703;48.016;7.802;2023-09-19T06:01:00;17.90;99.90
7325;DHT22;3703;48.016;7.802;2023-09-19T06:03:28;17.80;99.90
7325;DHT22;3703;48.016;7.802;2023-09-19T06:05:56;16.70;99.90
7325;DHT22;3703;48.016;7.802;2023-09-19T06:08:23;17.70;99.90
7325;DHT22;3703;48.016;7.802;2023-09-19T06:10:51;17.80;99.90
7325;DHT22;3703;48.016;7.802;2023-09-19T06:13:20;17.70;99.90
7325;DHT22;3703;48.016;7.802;2023-09-19T06:15:47;17.70;99.90
7325;DHT22;3703;48.016;7.802;2023-09-19T06:18:15;17.70;99.90
7325;DHT22;3703;48.016;7.802;2023-09-19T06:20:45;17.80;99.90
7325;DHT22;3703;48.016;7.802;2023-09-19T06:23:13;18.00;99.90
7325;DHT22;3703;48.016;7.802;2023-09-19T06:25:40;17.90;99.90
7325;DHT22;3703;48.016;7.802;2023-09-19T06:28:09;18.10;99.90
7325;DHT22;3703;48.016;7.802;2023-09-19T06:30:39;17.90;99.90
7325;DHT22;3703;48.016;7.802;2023-09-19T06:33:07;18.00;99.90
7325;DHT22;3703;48.016;7.802;2023-09-19T06:35:55;18.20;99.90
7325;DHT22;3703;48.016;7.802;2023-09-19T06:38:25;18.20;99.90
7325;DHT22;3703;48.016;7.802;2023-09-19T06:40:53;18.20;99.90
7325;DHT22;3703;48.016;7.802;2023-09-19T06:43:20;18.20;99.90
7325;DHT22;3703;48.016;7.802;2023-09-19T06:45:49;18.20;99.90
7325;DHT22;3703;48.016;7.802;2023-09-19T06:48:17;18.30;99.90
7325;DHT22;3703;48.016;7.802;2023-09-19T06:50:44;18.10;99.90
7325;DHT22;3703;48.016;7.802;2023-09-19T06:53:13;18.20;99.90
7325;DHT22;3703;48.016;7.802;2023-09-19T06:55:51;18.00;99.90
7325;DHT22;3703;48.016;7.802;2023-09-19T06:58:18;18.00;99.90
7325;DHT22;3703;48.016;7.802;2023-09-19T07:01:06;18.10;99.90
7325;DHT22;3703;48.016;7.802;2023-09-19T07:03:33;18.20;99.90
7325;DHT22;3703;48.016;7.802;2023-09-19T07:06:02;18.30;99.90
7325;DHT22;3703;48.016;7.802;2023-09-19T07:08:30;18.10;99.90
7325;DHT22;3703;48.016;7.802;2023-09-19T07:10:57;18.60;99.90
7325;DHT22;3703;48.016;7.802;2023-09-19T07:13:24;18.10;99.90
7325;DHT22;3703;48.016;7.802;2023-09-19T07:15:51;18.00;99.90
7325;DHT22;3703;48.016;7.802;2023-09-19T07:18:19;18.30;99.90
7325;DHT22;3703;48.016;7.802;2023-09-19T07:20:47;18.10;99.90
7325;DHT22;3703;48.016;7.802;2023-09-19T07:23:16;18.50;99.90
7325;DHT22;3703;48.016;7.802;2023-09-19T07:25:44;18.40;99.90
7325;DHT22;3703;48.016;7.802;2023-09-19T07:28:12;18.40;99.90
7325;DHT22;3703;48.016;7.802;2023-09-19T07:30:39;18.00;99.90
7325;DHT22;3703;48.016;7.802;2023-09-19T07:33:07;18.50;99.90
7325;DHT22;3703;48.016;7.802;2023-09-19T07:35:38;18.60;99.90
7325;DHT22;3703;48.016;7.802;2023-09-19T07:38:06;18.70;99.90
7325;DHT22;3703;48.016;7.802;2023-09-19T07:40:33;18.60;99.90
7325;DHT22;3703;48.016;7.802;2023-09-19T07:43:00;18.50;99.90
7325;DHT22;3703;48.016;7.802;2023-09-19T07:45:29;18.20;99.90
7325;DHT22;3703;48.016;7.802;2023-09-19T07:47:57;18.70;99.90
7325;DHT22;3703;48.016;7.802;2023-09-19T07:50:25;18.70;99.90
7325;DHT22;3703;48.016;7.802;2023-09-19T07:52:54;18.70;99.90
7325;DHT22;3703;48.016;7.802;2023-09-19T07:55:22;18.60;99.90
7325;DHT22;3703;48.016;7.802;2023-09-19T07:57:52;18.80;99.90
7325;DHT22;3703;48.016;7.802;2023-09-19T08:00:19;18.90;99.90
7325;DHT22;3703;48.016;7.802;2023-09-19T08:05:14;18.90;99.90
7325;DHT22;3703;48.016;7.802;2023-09-19T08:07:43;19.20;99.90
7325;DHT22;3703;48.016;7.802;2023-09-19T08:10:13;18.80;99.90
7325;DHT22;3703;48.016;7.802;2023-09-19T08:12:41;19.00;99.90
7325;DHT22;3703;48.016;7.802;2023-09-19T08:15:12;19.10;99.90
7325;DHT22;3703;48.016;7.802;2023-09-19T08:17:40;19.30;99.90
7325;DHT22;3703;48.016;7.802;2023-09-19T08:20:08;19.40;99.90
7325;DHT22;3703;48.016;7.802;2023-09-19T08:22:43;19.40;99.90
7325;DHT22;3703;48.016;7.802;2023-09-19T08:25:14;19.40;99.90
7325;DHT22;3703;48.016;7.802;2023-09-19T08:27:44;19.10;99.90
7325;DHT22;3703;48.016;7.802;2023-09-19T08:30:14;19.20;99.90
7325;DHT22;3703;48.016;7.802;2023-09-19T08:32:41;19.60;99.90
7325;DHT22;3703;48.016;7.802;2023-09-19T08:35:09;19.50;99.90
7325;DHT22;3703;48.016;7.802;2023-09-19T08:37:37;19.50;99.90
7325;DHT22;3703;48.016;7.802;2023-09-19T08:40:05;19.70;99.90
7325;DHT22;3703;48.016;7.802;2023-09-19T08:42:49;19.70;99.90
7325;DHT22;3703;48.016;7.802;2023-09-19T08:45:17;19.80;99.90
7325;DHT22;3703;48.016;7.802;2023-09-19T08:47:47;19.80;99.90
7325;DHT22;3703;48.016;7.802;2023-09-19T08:50:26;19.30;99.90
7325;DHT22;3703;48.016;7.802;2023-09-19T08:52:55;20.00;99.90
7325;DHT22;3703;48.016;7.802;2023-09-19T08:55:27;20.10;99.90
7325;DHT22;3703;48.016;7.802;2023-09-19T08:58:00;20.40;99.90
7325;DHT22;3703;48.016;7.802;2023-09-19T09:00:28;20.20;99.90
7325;DHT22;3703;48.016;7.802;2023-09-19T09:02:58;20.20;99.90
7325;DHT22;3703;48.016;7.802;2023-09-19T09:05:28;20.40;99.90
7325;DHT22;3703;48.016;7.802;2023-09-19T09:07:56;20.40;99.90
7325;DHT22;3703;48.016;7.802;2023-09-19T09:10:25;20.40;99.90
7325;DHT22;3703;48.016;7.802;2023-09-19T09:12:53;20.50;99.90
7325;DHT22;3703;48.016;7.802;2023-09-19T09:15:23;20.70;99.90
7325;DHT22;3703;48.016;7.802;2023-09-19T09:17:51;20.60;99.90
7325;DHT22;3703;48.016;7.802;2023-09-19T09:20:19;21.10;99.90
7325;DHT22;3703;48.016;7.802;2023-09-19T09:22:53;20.70;99.90
7325;DHT22;3703;48.016;7.802;2023-09-19T09:25:21;20.70;99.90
7325;DHT22;3703;48.016;7.802;2023-09-19T09:28:08;20.60;99.90
7325;DHT22;3703;48.016;7.802;2023-09-19T09:30:38;20.80;99.90
7325;DHT22;3703;48.016;7.802;2023-09-19T09:33:09;20.40;99.90
7325;DHT22;3703;48.016;7.802;2023-09-19T09:35:38;20.40;99.90
7325;DHT22;3703;48.016;7.802;2023-09-19T09:38:18;20.60;99.90
7325;DHT22;3703;48.016;7.802;2023-09-19T09:40:49;20.90;99.90
7325;DHT22;3703;48.016;7.802;2023-09-19T09:43:32;21.00;99.90
7325;DHT22;3703;48.016;7.802;2023-09-19T09:46:23;21.00;99.90
7325;DHT22;3703;48.016;7.802;2023-09-19T09:49:10;20.90;99.90
7325;DHT22;3703;48.016;7.802;2023-09-19T09:51:49;21.30;99.90
7325;DHT22;3703;48.016;7.802;2023-09-19T09:54:25;21.20;99.90
7325;DHT22;3703;48.016;7.802;2023-09-19T09:57:00;21.20;99.90
7325;DHT22;3703;48.016;7.802;2023-09-19T09:59:50;21.20;99.90
7325;DHT22;3703;48.016;7.802;2023-09-19T10:02:25;21.60;99.90
7325;DHT22;3703;48.016;7.802;2023-09-19T10:04:55;21.50;99.90
7325;DHT22;3703;48.016;7.802;2023-09-19T10:07:35;21.40;99.90
7325;DHT22;3703;48.016;7.802;2023-09-19T10:10:07;21.50;99.90
7325;DHT22;3703;48.016;7.802;2023-09-19T10:12:44;22.60;99.90
7325;DHT22;3703;48.016;7.802;2023-09-19T10:15:17;21.60;99.90
7325;DHT22;3703;48.016;7.802;2023-09-19T10:17:47;21.00;99.90
7325;DHT22;3703;48.016;7.802;2023-09-19T10:20:16;22.10;99.90
7325;DHT22;3703;48.016;7.802;2023-09-19T10:23:03;21.50;99.90
7325;DHT22;3703;48.016;7.802;2023-09-19T10:25:36;21.50;99.90
7325;DHT22;3703;48.016;7.802;2023-09-19T10:28:06;21.50;99.90
7325;DHT22;3703;48.016;7.802;2023-09-19T10:30:37;21.20;99.90
7325;DHT22;3703;48.016;7.802;2023-09-19T10:33:11;21.30;99.90
7325;DHT22;3703;48.016;7.802;2023-09-19T10:35:41;21.30;99.90
7325;DHT22;3703;48.016;7.802;2023-09-19T10:38:11;21.40;99.90
7325;DHT22;3703;48.016;7.802;2023-09-19T10:40:39;21.70;99.90
7325;DHT22;3703;48.016;7.802;2023-09-19T10:43:12;22.00;99.90
7325;DHT22;3703;48.016;7.802;2023-09-19T10:45:41;21.90;99.90
7325;DHT22;3703;48.016;7.802;2023-09-19T10:48:13;21.70;99.90
7325;DHT22;3703;48.016;7.802;2023-09-19T10:50:45;21.50;99.90
7325;DHT22;3703;48.016;7.802;2023-09-19T10:53:16;21.40;99.90
7325;DHT22;3703;48.016;7.802;2023-09-19T10:58:27;21.20;99.90
7325;DHT22;3703;48.016;7.802;2023-09-19T11:00:56;21.40;99.90
7325;DHT22;3703;48.016;7.802;2023-09-19T11:03:32;21.40;99.90
7325;DHT22;3703;48.016;7.802;2023-09-19T11:06:05;21.60;99.90
7325;DHT22;3703;48.016;7.802;2023-09-19T11:08:54;22.00;99.90
7325;DHT22;3703;48.016;7.802;2023-09-19T11:11:41;21.80;99.90
7325;DHT22;3703;48.016;7.802;2023-09-19T11:14:30;21.80;99.90
7325;DHT22;3703;48.016;7.802;2023-09-19T11:17:40;21.80;99.90
7325;DHT22;3703;48.016;7.802;2023-09-19T11:20:24;21.90;99.90
7325;DHT22;3703;48.016;7.802;2023-09-19T11:23:34;21.80;99.90
7325;DHT22;3703;48.016;7.802;2023-09-19T11:26:02;21.70;99.90
7325;DHT22;3703;48.016;7.802;2023-09-19T11:28:36;21.70;99.90
7325;DHT22;3703;48.016;7.802;2023-09-19T11:34:38;22.20;99.90
7325;DHT22;3703;48.016;7.802;2023-09-19T11:40:45;23.50;99.90
7325;DHT22;3703;48.016;7.802;2023-09-19T11:43:31;23.30;99.90
7325;DHT22;3703;48.016;7.802;2023-09-19T11:46:03;23.00;99.90
7325;DHT22;3703;48.016;7.802;2023-09-19T11:48:32;22.60;99.90
7325;DHT22;3703;48.016;7.802;2023-09-19T11:51:00;22.70;99.90
7325;DHT22;3703;48.016;7.802;2023-09-19T11:53:34;21.90;99.90
7325;DHT22;3703;48.016;7.802;2023-09-19T11:56:06;22.70;99.90
7325;DHT22;3703;48.016;7.802;2023-09-19T11:58:37;22.70;99.90
7325;DHT22;3703;48.016;7.802;2023-09-19T12:01:05;22.50;99.90
7325;DHT22;3703;48.016;7.802;2023-09-19T12:03:42;22.10;99.90
7325;DHT22;3703;48.016;7.802;2023-09-19T12:06:14;22.80;99.90
7325;DHT22;3703;48.016;7.802;2023-09-19T12:08:44;23.60;99.90
7325;DHT22;3703;48.016;7.802;2023-09-19T12:11:14;23.60;99.90
7325;DHT22;3703;48.016;7.802;2023-09-19T12:13:43;23.10;99.90
7325;DHT22;3703;48.016;7.802;2023-09-19T12:16:13;23.00;99.90
7325;DHT22;3703;48.016;7.802;2023-09-19T12:18:42;23.20;99.90
7325;DHT22;3703;48.016;7.802;2023-09-19T12:21:22;24.00;99.90
7325;DHT22;3703;48.016;7.802;2023-09-19T12:24:15;24.20;99.90
7325;DHT22;3703;48.016;7.802;2023-09-19T12:26:46;24.10;99.90
7325;DHT22;3703;48.016;7.802;2023-09-19T12:29:19;23.90;99.90
7325;DHT22;3703;48.016;7.802;2023-09-19T12:31:53;23.80;99.90
7325;DHT22;3703;48.016;7.802;2023-09-19T12:34:25;24.00;99.90
7325;DHT22;3703;48.016;7.802;2023-09-19T12:37:07;24.60;99.90
7325;DHT22;3703;48.016;7.802;2023-09-19T12:39:42;24.70;99.90
7325;DHT22;3703;48.016;7.802;2023-09-19T12:42:15;24.80;99.90
7325;DHT22;3703;48.016;7.802;2023-09-19T12:44:45;25.10;99.90
7325;DHT22;3703;48.016;7.802;2023-09-19T12:47:14;25.80;99.90
7325;DHT22;3703;48.016;7.802;2023-09-19T12:50:11;26.00;99.90
7325;DHT22;3703;48.016;7.802;2023-09-19T12:52:44;26.00;99.90
7325;DHT22;3703;48.016;7.802;2023-09-19T12:55:23;25.60;99.90
7325;DHT22;3703;48.016;7.802;2023-09-19T12:58:11;25.70;99.90
7325;DHT22;3703;48.016;7.802;2023-09-19T13:00:42;25.60;99.90
7325;DHT22;3703;48.016;7.802;2023-09-19T13:03:17;26.50;99.90
7325;DHT22;3703;48.016;7.802;2023-09-19T13:05:54;26.00;99.90
7325;DHT22;3703;48.016;7.802;2023-09-19T13:08:27;25.70;99.90
7325;DHT22;3703;48.016;7.802;2023-09-19T13:11:17;26.00;99.90
7325;DHT22;3703;48.016;7.802;2023-09-19T13:13:47;26.10;99.90
7325;DHT22;3703;48.016;7.802;2023-09-19T13:16:54;25.80;99.90
7325;DHT22;3703;48.016;7.802;2023-09-19T13:19:39;26.00;99.90
7325;DHT22;3703;48.016;7.802;2023-09-19T13:22:36;25.50;99.90
7325;DHT22;3703;48.016;7.802;2023-09-19T13:25:06;26.10;99.90
7325;DHT22;3703;48.016;7.802;2023-09-19T13:27:41;26.80;99.90
7325;DHT22;3703;48.016;7.802;2023-09-19T13:30:10;26.50;99.90
7325;DHT22;3703;48.016;7.802;2023-09-19T13:32:38;26.70;99.90
7325;DHT22;3703;48.016;7.802;2023-09-19T13:35:07;26.10;99.90
7325;DHT22;3703;48.016;7.802;2023-09-19T13:37:35;26.30;99.90
7325;DHT22;3703;48.016;7.802;2023-09-19T13:40:07;26.40;99.90
7325;DHT22;3703;48.016;7.802;2023-09-19T13:42:36;25.90;99.90
7325;DHT22;3703;48.016;7.802;2023-09-19T13:45:05;26.20;99.90
7325;DHT22;3703;48.016;7.802;2023-09-19T13:47:37;26.10;99.90
7325;DHT22;3703;48.016;7.802;2023-09-19T13:50:05;26.00;99.90
7325;DHT22;3703;48.016;7.802;2023-09-19T13:52:33;26.40;99.90
7325;DHT22;3703;48.016;7.802;2023-09-19T13:55:02;26.40;99.90
7325;DHT22;3703;48.016;7.802;2023-09-19T14:00:43;26.70;99.90
7325;DHT22;3703;48.016;7.802;2023-09-19T14:03:10;26.60;99.90
7325;DHT22;3703;48.016;7.802;2023-09-19T14:05:37;26.10;99.90
7325;DHT22;3703;48.016;7.802;2023-09-19T14:08:05;26.30;99.90
7325;DHT22;3703;48.016;7.802;2023-09-19T14:10:32;26.50;99.90
7325;DHT22;3703;48.016;7.802;2023-09-19T14:13:00;26.10;99.90
7325;DHT22;3703;48.016;7.802;2023-09-19T14:15:28;25.90;99.90
7325;DHT22;3703;48.016;7.802;2023-09-19T14:18:01;25.50;99.90
7325;DHT22;3703;48.016;7.802;2023-09-19T14:20:29;25.30;99.90
7325;DHT22;3703;48.016;7.802;2023-09-19T14:22:57;25.90;99.90
7325;DHT22;3703;48.016;7.802;2023-09-19T14:25:25;25.50;99.90
7325;DHT22;3703;48.016;7.802;2023-09-19T14:27:55;25.30;99.90
7325;DHT22;3703;48.016;7.802;2023-09-19T14:30:22;24.90;99.90
7325;DHT22;3703;48.016;7.802;2023-09-19T14:32:49;25.20;99.90
7325;DHT22;3703;48.016;7.802;2023-09-19T14:35:17;24.60;99.90
7325;DHT22;3703;48.016;7.802;2023-09-19T14:37:45;24.60;99.90
7325;DHT22;3703;48.016;7.802;2023-09-19T14:40:12;24.60;99.90
7325;DHT22;3703;48.016;7.802;2023-09-19T14:42:41;24.40;99.90
7325;DHT22;3703;48.016;7.802;2023-09-19T14:45:10;24.40;99.90
7325;DHT22;3703;48.016;7.802;2023-09-19T14:47:40;24.40;99.90
7325;DHT22;3703;48.016;7.802;2023-09-19T14:50:08;24.20;99.90
7325;DHT22;3703;48.016;7.802;2023-09-19T14:52:38;24.20;99.90
7325;DHT22;3703;48.016;7.802;2023-09-19T14:55:07;24.40;99.90
7325;DHT22;3703;48.016;7.802;2023-09-19T14:57:37;24.50;99.90
7325;DHT22;3703;48.016;7.802;2023-09-19T15:00:06;24.50;99.90
7325;DHT22;3703;48.016;7.802;2023-09-19T15:02:37;24.30;99.90
7325;DHT22;3703;48.016;7.802;2023-09-19T15:05:06;24.20;99.90
7325;DHT22;3703;48.016;7.802;2023-09-19T15:07:35;24.20;99.90
7325;DHT22;3703;48.016;7.802;2023-09-19T15:10:05;24.20;99.90
7325;DHT22;3703;48.016;7.802;2023-09-19T15:12:35;24.20;99.90
7325;DHT22;3703;48.016;7.802;2023-09-19T15:15:04;24.20;99.90
7325;DHT22;3703;48.016;7.802;2023-09-19T15:17:32;24.20;99.90
7325;DHT22;3703;48.016;7.802;2023-09-19T15:20:00;24.10;99.90
7325;DHT22;3703;48.016;7.802;2023-09-19T15:22:27;24.30;99.90
7325;DHT22;3703;48.016;7.802;2023-09-19T15:24:54;24.20;99.90
7325;DHT22;3703;48.016;7.802;2023-09-19T15:27:24;24.30;99.90
7325;DHT22;3703;48.016;7.802;2023-09-19T15:29:51;23.90;99.90
7325;DHT22;3703;48.016;7.802;2023-09-19T15:32:19;24.00;99.90
7325;DHT22;3703;48.016;7.802;2023-09-19T15:34:47;24.90;99.90
7325;DHT22;3703;48.016;7.802;2023-09-19T15:37:14;23.90;99.90
7325;DHT22;3703;48.016;7.802;2023-09-19T15:39:42;23.90;99.90
7325;DHT22;3703;48.016;7.802;2023-09-19T15:42:10;23.80;99.90
7325;DHT22;3703;48.016;7.802;2023-09-19T15:44:39;24.10;99.90
7325;DHT22;3703;48.016;7.802;2023-09-19T15:47:06;24.10;99.90
7325;DHT22;3703;48.016;7.802;2023-09-19T15:49:34;23.90;99.90
7325;DHT22;3703;48.016;7.802;2023-09-19T15:52:01;23.80;99.90
7325;DHT22;3703;48.016;7.802;2023-09-19T15:54:28;23.70;99.90
7325;DHT22;3703;48.016;7.802;2023-09-19T15:56:59;23.20;99.90
7325;DHT22;3703;48.016;7.802;2023-09-19T15:59:27;23.40;99.90
7325;DHT22;3703;48.016;7.802;2023-09-19T16:01:57;22.70;99.90
7325;DHT22;3703;48.016;7.802;2023-09-19T16:04:24;23.20;99.90
7325;DHT22;3703;48.016;7.802;2023-09-19T16:06:51;23.30;99.90
7325;DHT22;3703;48.016;7.802;2023-09-19T16:09:18;23.30;99.90
7325;DHT22;3703;48.016;7.802;2023-09-19T16:11:45;23.20;99.90
7325;DHT22;3703;48.016;7.802;2023-09-19T16:14:19;23.20;99.90
7325;DHT22;3703;48.016;7.802;2023-09-19T16:16:46;23.80;99.90
7325;DHT22;3703;48.016;7.802;2023-09-19T16:19:15;23.10;99.90
7325;DHT22;3703;48.016;7.802;2023-09-19T16:21:42;23.20;99.90
7325;DHT22;3703;48.016;7.802;2023-09-19T16:24:09;23.10;99.90
7325;DHT22;3703;48.016;7.802;2023-09-19T16:26:37;22.90;99.90
7325;DHT22;3703;48.016;7.802;2023-09-19T16:29:04;23.10;99.90
7325;DHT22;3703;48.016;7.802;2023-09-19T16:31:31;23.20;99.90
7325;DHT22;3703;48.016;7.802;2023-09-19T16:33:59;23.10;99.90
7325;DHT22;3703;48.016;7.802;2023-09-19T16:36:28;23.10;99.90
7325;DHT22;3703;48.016;7.802;2023-09-19T16:38:58;23.30;99.90
7325;DHT22;3703;48.016;7.802;2023-09-19T16:41:25;23.30;99.90
7325;DHT22;3703;48.016;7.802;2023-09-19T16:43:52;23.20;99.90
7325;DHT22;3703;48.016;7.802;2023-09-19T16:46:19;23.20;99.90
7325;DHT22;3703;48.016;7.802;2023-09-19T16:48:48;23.00;99.90
7325;DHT22;3703;48.016;7.802;2023-09-19T16:51:15;23.20;99.90
7325;DHT22;3703;48.016;7.802;2023-09-19T16:53:44;23.20;99.90
7325;DHT22;3703;48.016;7.802;2023-09-19T16:56:13;23.30;99.90
7325;DHT22;3703;48.016;7.802;2023-09-19T16:58:43;23.10;99.90
7325;DHT22;3703;48.016;7.802;2023-09-19T17:01:12;22.80;99.90
7325;DHT22;3703;48.016;7.802;2023-09-19T17:03:41;22.70;99.90
7325;DHT22;3703;48.016;7.802;2023-09-19T17:06:09;22.80;99.90
7325;DHT22;3703;48.016;7.802;2023-09-19T17:08:38;23.00;99.90
7325;DHT22;3703;48.016;7.802;2023-09-19T17:11:08;22.80;99.90
7325;DHT22;3703;48.016;7.802;2023-09-19T17:13:36;22.80;99.90
7325;DHT22;3703;48.016;7.802;2023-09-19T17:16:07;23.30;99.90
7325;DHT22;3703;48.016;7.802;2023-09-19T17:18:37;22.80;99.90
7325;DHT22;3703;48.016;7.802;2023-09-19T17:21:05;23.50;99.90